Flight Track Log - Related Links

Times and Time Zones

All times are in EDT time to prevent confusion due to time zone crossing. See the UAL129 flight status page for this flight to view local times or setup timezone preferences in your user account.

Time Position Orientation Groundspeed Altitude Reporting Facility
EDT Latitude Longitude Course Direction KTS MPH feet Rate Location/Type
Mon 10:22:01 PM 29.9762 -95.2875 241° Southwest 180 207 1,000  Level FlightAware ADS-B
Mon 10:22:06 PM 29.9755 -95.2826 99° East 184 212 1,200 1,875 Climbing FlightAware ADS-B
Mon 10:22:17 PM 29.9740 -95.2725 100° East 184 212 1,500 1,636 Climbing FlightAware ADS-B
Mon 10:22:28 PM 29.9718 -95.2607 102° East 194 223 1,800 1,429 Climbing FlightAware ADS-B
Mon 10:22:38 PM 29.9702 -95.2503 100° East 203 234 2,000 1,154 Climbing FlightAware ADS-B
Mon 10:22:54 PM 29.9670 -95.2333 102° East 219 252 2,300 968 Climbing FlightAware ADS-B
Mon 10:23:09 PM 29.9638 -95.2152 102° East 237 273 2,500 1,333 Climbing FlightAware ADS-B
Mon 10:23:21 PM 29.9612 -95.1999 101° East 242 278 2,900 2,222 Climbing FlightAware ADS-B
Mon 10:23:36 PM 29.9576 -95.1803 102° East 248 285 3,500 2,211 Climbing FlightAware ADS-B
Mon 10:23:40 PM 29.9566 -95.1753 103° East 244 281 3,600 1,714 Climbing FlightAware ADS-B
Mon 10:23:50 PM 29.9540 -95.1616 102° East 257 296 3,900 2,077 Climbing FlightAware ADS-B
Mon 10:24:06 PM 29.9506 -95.1408 101° East 263 303 4,500 2,069 Climbing FlightAware ADS-B
Mon 10:24:19 PM 29.9475 -95.1229 101° East 270 311 4,900 1,765 Climbing FlightAware ADS-B
Mon 10:24:23 PM 29.9463 -95.1164 102° East 273 314 5,000 1,600 Climbing FlightAware ADS-B
Mon 10:24:34 PM 29.9437 -95.1013 101° East 278 320 5,300 2,000 Climbing FlightAware ADS-B
Mon 10:24:38 PM 29.9427 -95.0953 101° East 277 319 5,500 2,769 Climbing FlightAware ADS-B
Mon 10:24:47 PM 29.9406 -95.0826 101° East 277 319 5,900 2,500 Climbing FlightAware ADS-B
Mon 10:24:50 PM 29.9398 -95.0779 101° East 276 318 6,000 2,400 Climbing FlightAware ADS-B
Mon 10:25:02 PM 29.9363 -95.0603 103° East 280 322 6,500 2,400 Climbing FlightAware ADS-B
Mon 10:25:05 PM 29.9353 -95.0555 104° East 280 322 6,600 1,636 Climbing FlightAware ADS-B
Mon 10:25:13 PM 29.9328 -95.0432 103° East 285 328 6,800 1,500 Climbing FlightAware ADS-B
Mon 10:25:17 PM 29.9318 -95.0385 104° East 286 329 6,900 1,500 Climbing FlightAware ADS-B
Mon 10:25:21 PM 29.9306 -95.0327 103° East 287 330 7,000 2,400 Climbing FlightAware ADS-B
Mon 10:25:22 PM 29.9303 -95.0313 104° East 288 331 7,100 2,000 Climbing FlightAware ADS-B
Mon 10:25:30 PM 29.9272 -95.0196 107° East 290 334 7,300 2,000 Climbing FlightAware ADS-B
Mon 10:25:34 PM 29.9254 -95.0134 109° East 291 335 7,500 2,250 Climbing FlightAware ADS-B
Mon 10:25:46 PM 29.9202 -94.9952 108° East 294 338 7,900 1,875 Climbing FlightAware ADS-B
Mon 10:25:50 PM 29.9188 -94.9897 106° East 295 339 8,000 2,400 Climbing FlightAware ADS-B
Mon 10:26:01 PM 29.9136 -94.9726 109° East 296 341 8,500 2,400 Climbing FlightAware ADS-B
Mon 10:26:05 PM 29.9120 -94.9665 107° East 297 342 8,600 1,895 Climbing FlightAware ADS-B
Mon 10:26:20 PM 29.9052 -94.9442 109° East 299 344 9,100 2,250 Climbing FlightAware ADS-B
Mon 10:26:21 PM 29.9049 -94.9429 105° East 300 345 9,200 1,875 Climbing FlightAware ADS-B
Mon 10:26:36 PM 29.8982 -94.9211 110° East 304 350 9,600 1,875 Climbing FlightAware ADS-B
Mon 10:26:37 PM 29.8975 -94.9187 109° East 305 351 9,700 1,742 Climbing FlightAware ADS-B
Mon 10:27:07 PM 29.8832 -94.8713 109° East 323 372 10,500 1,200 Climbing FlightAware ADS-B
Mon 10:27:37 PM 29.8677 -94.8197 109° East 356 410 10,900 750 Climbing FlightAware ADS-B
Mon 10:27:39 PM 29.8668 -94.8168 110° East 357 411 10,900 800 Level FlightAware ADS-B
Mon 10:28:07 PM 29.8506 -94.7632 109° East 385 443 11,300 968 Climbing FlightAware ADS-B
Mon 10:28:10 PM 29.8492 -94.7584 109° East 386 444 11,400 1,161 Climbing FlightAware ADS-B
Mon 10:28:38 PM 29.8324 -94.7024 109° East 408 470 11,900 1,200 Climbing FlightAware ADS-B
Mon 10:28:40 PM 29.8310 -94.6981 111° Southeast 409 471 12,000 1,600 Climbing FlightAware ADS-B
Mon 10:29:08 PM 29.8132 -94.6391 109° East 423 487 12,700 1,588 Climbing FlightAware ADS-B
Mon 10:29:14 PM 29.8091 -94.6256 109° East 425 489 12,900 2,000 Climbing FlightAware ADS-B
Mon 10:29:38 PM 29.7937 -94.5741 109° East 432 497 13,700 1,941 Climbing FlightAware ADS-B
Mon 10:29:48 PM 29.7874 -94.5534 109° East 432 497 14,000 2,129 Climbing FlightAware ADS-B
Mon 10:30:09 PM 29.7736 -94.5078 109° East 436 502 14,800 2,182 Climbing FlightAware ADS-B
Mon 10:30:21 PM 29.7650 -94.4795 109° East 439 505 15,200 1,800 Climbing FlightAware ADS-B
Mon 10:30:39 PM 29.7532 -94.4405 109° East 444 511 15,700 1,818 Climbing FlightAware ADS-B
Mon 10:30:54 PM 29.7428 -94.4064 109° East 439 505 16,200 1,778 Climbing FlightAware ADS-B
Mon 10:31:06 PM 29.7347 -94.3793 109° East 451 519 16,500 1,714 Climbing FlightAware ADS-B
Mon 10:31:22 PM 29.7257 -94.3427 106° East 454 522 17,000 1,895 Climbing FlightAware ADS-B
Mon 10:31:25 PM 29.7245 -94.3368 103° East 448 516 17,100 1,742 Climbing FlightAware ADS-B
Mon 10:31:53 PM 29.7147 -94.2688 99° East 459 528 17,900 1,759 Climbing FlightAware ADS-B
Mon 10:32:23 PM 29.7067 -94.1972 97° East 463 533 18,800 1,818 Climbing FlightAware ADS-B
Mon 10:32:26 PM 29.7058 -94.1893 97° East 465 535 18,900 1,455 Climbing FlightAware ADS-B
Mon 10:32:56 PM 29.6979 -94.1148 97° East 473 544 19,600 1,455 Climbing FlightAware ADS-B
Mon 10:32:59 PM 29.6972 -94.1081 97° East 474 545 19,700 1,615 Climbing FlightAware ADS-B
Mon 10:33:22 PM 29.6917 -94.0492 96° East 477 549 20,300 1,556 Climbing FlightAware ADS-B
Mon 10:33:26 PM 29.6910 -94.0383 94° East 478 550 20,400 1,548 Climbing FlightAware ADS-B
Mon 10:33:53 PM 29.6892 -93.9716 92° East 482 555 21,100 1,548 Climbing FlightAware ADS-B
Mon 10:33:57 PM 29.6890 -93.9600 91° East 483 556 21,200 1,543 Climbing FlightAware ADS-B
Mon 10:34:28 PM 29.6883 -93.8814 91° East 488 562 22,000 1,588 Climbing FlightAware ADS-B
Mon 10:34:31 PM 29.6881 -93.8723 91° East 486 559 22,100 1,400 Climbing FlightAware ADS-B
Mon 10:34:58 PM 29.6878 -93.8025 90° East 492 566 22,700 1,345 Climbing FlightAware ADS-B
Mon 10:35:29 PM 29.6873 -93.7209 90° East 497 572 23,400 1,377 Climbing FlightAware ADS-B
Mon 10:35:59 PM 29.6866 -93.6400 91° East 502 578 24,100 1,475 Climbing FlightAware ADS-B
Mon 10:36:30 PM 29.6859 -93.5598 91° East 502 578 24,900 1,672 Climbing FlightAware ADS-B
Mon 10:37:00 PM 29.6852 -93.4785 91° East 498 573 25,800 1,700 Climbing FlightAware ADS-B
Mon 10:37:30 PM 29.6844 -93.3992 91° East 496 571 26,600 1,532 Climbing FlightAware ADS-B
Mon 10:37:47 PM 29.6837 -93.3543 91° East 496 571 27,000 1,538 Climbing FlightAware ADS-B
Mon 10:38:09 PM 29.6787 -93.2980 96° East 496 571 27,600 1,571 Climbing FlightAware ADS-B
Mon 10:38:29 PM 29.6701 -93.2455 101° East 495 570 28,100 1,320 Climbing FlightAware ADS-B
Mon 10:38:59 PM 29.6534 -93.1688 104° East 494 568 28,700 1,180 Climbing FlightAware ADS-B
Mon 10:39:30 PM 29.6369 -93.0900 104° East 494 568 29,300 1,082 Climbing FlightAware ADS-B
Mon 10:40:00 PM 29.6202 -93.0135 104° East 496 571 29,800 1,000 Climbing FlightAware ADS-B
Mon 10:40:30 PM 29.6033 -92.9368 104° East 496 571 30,300 1,082 Climbing FlightAware ADS-B
Mon 10:41:01 PM 29.5859 -92.8594 104° East 497 572 30,900 677 Climbing FlightAware ADS-B
Mon 10:41:32 PM 29.5679 -92.7798 105° East 500 575 31,000 98 Climbing FlightAware ADS-B
Mon 10:42:02 PM 29.5503 -92.7016 104° East 500 575 31,000  Level FlightAware ADS-B
Mon 10:42:33 PM 29.5320 -92.6213 105° East 500 575 31,000  Level FlightAware ADS-B
Mon 10:43:38 PM 29.4945 -92.4566 105° East 500 575 31,000  Level FlightAware ADS-B
Mon 10:44:08 PM 29.4769 -92.3801 105° East 498 573 31,000  Level FlightAware ADS-B
Mon 10:44:39 PM 29.4589 -92.3016 105° East 498 573 31,000  Level FlightAware ADS-B
Mon 10:45:09 PM 29.4412 -92.2246 105° East 497 572 31,000  Level FlightAware ADS-B
Mon 10:45:59 PM 29.4113 -92.0958 105° East 498 573 31,000 32 Level FlightAware ADS-B
Mon 10:48:15 PM 29.3305 -91.7498 105° East 498 573 31,100  Climbing FlightAware ADS-B
Mon 10:48:40 PM 29.3106 -91.7031 105° East 497 572 31,000 -70 Descending Houston Center
Mon 10:49:41 PM 29.2750 -91.5506 105° East 497 572 31,000  Level Houston Center
Mon 10:50:42 PM 29.2378 -91.3961 105° East 503 579 31,000  Level Houston Center
Mon 10:51:43 PM 29.2011 -91.2442 105° East 501 577 31,000  Level Houston Center
Mon 10:52:44 PM 29.1631 -91.0900 106° East 504 580 31,000  Level Houston Center
Mon 10:53:45 PM 29.1261 -90.9364 105° East 503 579 31,000  Level Houston Center
Mon 10:54:46 PM 29.0883 -90.7828 106° East 503 579 31,000  Level Houston Center
Mon 10:55:47 PM 29.0506 -90.6289 106° East 505 581 31,000  Level Houston Center
Mon 10:56:48 PM 29.0125 -90.4761 106° East 504 580 31,000  Level Houston Center
Mon 10:57:49 PM 28.9667 -90.2922 106° East 503 579 31,000  Level Houston Center
Mon 10:58:50 PM 28.9281 -90.1375 106° East 505 581 31,000  Level Houston Center
Mon 10:59:51 PM 28.8900 -89.9844 106° East 504 580 31,000  Level Houston Center
Mon 11:00:52 PM 28.8503 -89.8314 106° East 505 581 31,000  Level Houston Center
Mon 11:01:53 PM 28.8122 -89.6783 106° East 505 581 31,000  Level Houston Center
Mon 11:02:54 PM 28.7731 -89.5244 106° East 508 585 31,000  Level Houston Center
Mon 11:03:55 PM 28.7342 -89.3739 106° East 500 575 31,000  Level Houston Center
Mon 11:04:56 PM 28.6944 -89.2203 106° East 503 579 31,000  Level Houston Center
Mon 11:05:57 PM 28.6556 -89.0675 106° East 506 582 31,000  Level Houston Center
Mon 11:06:58 PM 28.6164 -88.9153 106° East 504 580 31,000  Level Houston Center
Mon 11:07:59 PM 28.5675 -88.7325 107° East 506 582 31,000  Level Houston Center
Mon 11:09:00 PM 28.5281 -88.5806 106° East 503 579 31,000  Level Houston Center
Mon 11:10:08 PM 28.4817 -88.4181 108° East 509 586 31,000  Level Jacksonville Center
Mon 11:11:08 PM 28.4364 -88.2600 108° East 509 586 31,000  Level Jacksonville Center
Mon 11:12:08 PM 28.3864 -88.1086 111° Southeast 510 587 31,000  Level Jacksonville Center
Mon 11:13:08 PM 28.3381 -87.9553 110° East 515 593 31,000  Level Jacksonville Center
Mon 11:14:08 PM 28.2956 -87.8211 110° East 496 571 31,000  Level Jacksonville Center
Mon 11:15:08 PM 28.2469 -87.6703 110° East 496 571 31,000  Level Jacksonville Center
Mon 11:16:08 PM 28.1939 -87.5219 112° Southeast 502 578 31,000  Level Jacksonville Center
Mon 11:17:08 PM 28.1450 -87.3739 110° East 502 578 31,000  Level Jacksonville Center
Mon 11:18:08 PM 28.0919 -87.2186 111° Southeast 499 574 31,000  Level Jacksonville Center
Mon 11:23:27 PM 27.8120 -86.4160 111° Southeast 505 581 31,000  Level FlightAware ADS-B
Mon 11:24:07 PM 27.7780 -86.3190 112° Southeast 505 581 31,000  Level FlightAware ADS-B
Mon 11:24:47 PM 27.7500 -86.2330 110° East 505 581 31,000  Level FlightAware ADS-B
Mon 11:25:27 PM 27.7230 -86.1490 110° East 505 581 31,000  Level FlightAware ADS-B
Mon 11:26:07 PM 27.6960 -86.0650 110° East 505 581 31,000  Level FlightAware ADS-B
Mon 11:26:57 PM 27.6310 -85.9000 114° Southeast 507 583 31,000  Level FlightAware ADS-B
Mon 11:27:37 PM 27.5970 -85.8020 111° Southeast 507 583 31,000  Level FlightAware ADS-B
Mon 11:28:17 PM 27.5610 -85.7020 112° Southeast 507 583 31,000  Level FlightAware ADS-B
Mon 11:28:57 PM 27.5280 -85.6080 112° Southeast 507 583 31,000  Level FlightAware ADS-B
Mon 11:29:42 PM 27.4940 -85.5080 111° Southeast 507 583 31,000  Level FlightAware ADS-B
Mon 11:30:22 PM 27.4670 -85.4240 110° East 507 583 31,000  Level FlightAware ADS-B
Mon 11:31:02 PM 27.4390 -85.3390 110° East 507 583 31,000  Level FlightAware ADS-B
Mon 11:31:52 PM 27.4050 -85.2340 110° East 507 583 31,000  Level FlightAware ADS-B
Mon 11:32:32 PM 27.3380 -85.0760 115° Southeast 508 585 31,000  Level FlightAware ADS-B
Mon 11:33:12 PM 27.3020 -84.9760 112° Southeast 505 581 31,000  Level FlightAware ADS-B
Mon 11:36:02 PM 27.1560 -84.5710 112° Southeast 510 587 31,000  Level FlightAware ADS-B
Mon 11:36:52 PM 27.1110 -84.4450 112° Southeast 510 587 31,000  Level FlightAware ADS-B
Mon 11:37:47 PM 27.0640 -84.3160 112° Southeast 511 588 31,000  Level FlightAware ADS-B
Mon 11:38:37 PM 27.0260 -84.2120 112° Southeast 511 588 31,000  Level FlightAware ADS-B
Mon 11:39:32 PM 26.9700 -84.0590 112° Southeast 513 590 31,000  Level FlightAware ADS-B
Mon 11:40:12 PM 26.9390 -83.9750 112° Southeast 513 590 31,000  Level FlightAware ADS-B
Mon 11:40:52 PM 26.9090 -83.8910 112° Southeast 513 590 31,000  Level FlightAware ADS-B
Mon 11:41:42 PM 26.8710 -83.7860 112° Southeast 513 590 31,000  Level FlightAware ADS-B
Mon 11:42:22 PM 26.8410 -83.7020 112° Southeast 513 590 31,000  Level FlightAware ADS-B
Mon 11:46:12 PM 26.6070 -83.0770 113° Southeast 514 592 31,000  Level FlightAware ADS-B
Mon 11:47:02 PM 26.5710 -82.9720 111° Southeast 514 592 31,000  Level FlightAware ADS-B
Mon 11:48:52 PM 26.4490 -82.6620 114° Southeast 518 596 31,000  Level FlightAware ADS-B
Mon 11:50:42 PM 26.3500 -82.4000 113° Southeast 515 593 31,000  Level FlightAware ADS-B
Mon 11:51:57 PM 26.2770 -82.2080 113° Southeast 515 593 31,000  Level FlightAware ADS-B
Mon 11:52:47 PM 26.2300 -82.0840 113° Southeast 516 594 31,000  Level FlightAware ADS-B
Mon 11:53:32 PM 26.1880 -81.9740 113° Southeast 516 594 31,000  Level FlightAware ADS-B
Mon 11:54:17 PM 26.1470 -81.8670 113° Southeast 515 593 31,000  Level FlightAware ADS-B
Mon 11:55:27 PM 26.0810 -81.6970 113° Southeast 515 593 31,000  Level FlightAware ADS-B
Mon 11:56:37 PM 26.0140 -81.5220 113° Southeast 517 595 31,000  Level FlightAware ADS-B
Mon 11:57:47 PM 25.9470 -81.3510 114° Southeast 516 594 31,000  Level FlightAware ADS-B
Mon 11:59:12 PM 25.8660 -81.1430 113° Southeast 513 590 31,000  Level FlightAware ADS-B
Tue 12:00:22 AM 25.8000 -80.9740 113° Southeast 511 588 31,000  Level FlightAware ADS-B
Tue 12:01:32 AM 25.7340 -80.8050 113° Southeast 509 586 31,000 311 Level FlightAware ADS-B
Tue 12:02:37 AM 25.6720 -80.6480 114° Southeast 510 587 31,700 729 Climbing FlightAware ADS-B
Tue 12:03:52 AM 25.6000 -80.4670 114° Southeast 519 597 32,700 538 Climbing FlightAware ADS-B
Tue 12:05:02 AM 25.5310 -80.2940 114° Southeast 522 601 33,000 120 Climbing FlightAware ADS-B
Tue 12:06:22 AM 25.4540 -80.1010 114° Southeast 519 597 33,000  Level FlightAware ADS-B
Tue 12:07:32 AM 25.3860 -79.9320 114° Southeast 517 595 33,000  Level FlightAware ADS-B
Tue 12:08:47 AM 25.3120 -79.7500 114° Southeast 516 594 33,000  Level FlightAware ADS-B
Tue 12:09:27 AM 25.2740 -79.6560 114° Southeast 517 595 33,000  Level FlightAware ADS-B
Tue 12:10:07 AM 25.2350 -79.5590 114° Southeast 517 595 33,000  Level FlightAware ADS-B
Tue 12:10:47 AM 25.1950 -79.4630 115° Southeast 519 597 33,000  Level FlightAware ADS-B
Tue 12:11:32 AM 25.1500 -79.3510 114° Southeast 519 597 33,000  Level FlightAware ADS-B
Tue 12:12:27 AM 25.0960 -79.2190 114° Southeast 521 600 33,000  Level FlightAware ADS-B
Tue 12:13:37 AM 25.0260 -79.0500 115° Southeast 518 596 33,000  Level FlightAware ADS-B
Tue 12:14:47 AM 24.9570 -78.8830 114° Southeast 518 596 33,000  Level FlightAware ADS-B
Tue 12:16:12 AM 24.8730 -78.6820 115° Southeast 517 595 33,000  Level FlightAware ADS-B
Tue 12:16:57 AM 24.8280 -78.5730 114° Southeast 517 595 33,000  Level FlightAware ADS-B
Tue 12:17:32 AM 24.7940 -78.4920 115° Southeast 516 594 33,000  Level FlightAware ADS-B
Tue 12:18:17 AM 24.7480 -78.3830 115° Southeast 516 594 33,000  Level FlightAware ADS-B
Tue 12:19:12 AM 24.6930 -78.2500 114° Southeast 515 593 33,000  Level FlightAware ADS-B
Tue 12:20:12 AM 24.6390 -78.1210 115° Southeast 515 593 33,000  Level FlightAware ADS-B
Tue 12:20:52 AM 24.6060 -78.0400 114° Southeast 515 593 33,000  Level FlightAware ADS-B
Tue 12:21:32 AM 24.5730 -77.9580 114° Southeast 515 593 33,000  Level FlightAware ADS-B
Tue 12:22:12 AM 24.5400 -77.8770 114° Southeast 515 593 33,000  Level FlightAware ADS-B
Tue 12:22:52 AM 24.5080 -77.7960 113° Southeast 515 593 33,000  Level FlightAware ADS-B
Tue 12:23:42 AM 24.4660 -77.6940 114° Southeast 515 593 33,000  Level FlightAware ADS-B
Tue 12:24:22 AM 24.4330 -77.6130 114° Southeast 515 593 33,000  Level FlightAware ADS-B
Tue 12:25:02 AM 24.4000 -77.5310 114° Southeast 515 593 33,000  Level FlightAware ADS-B
Tue 12:25:42 AM 24.3670 -77.4500 114° Southeast 515 593 33,000  Level FlightAware ADS-B
Tue 12:26:22 AM 24.3340 -77.3690 114° Southeast 515 593 33,000  Level FlightAware ADS-B
Tue 12:27:12 AM 24.2930 -77.2670 114° Southeast 515 593 33,000  Level FlightAware ADS-B
Tue 12:27:52 AM 24.2600 -77.1860 114° Southeast 515 593 33,000  Level FlightAware ADS-B
Tue 12:28:32 AM 24.2270 -77.1050 114° Southeast 515 593 33,000  Level FlightAware ADS-B
Tue 12:29:12 AM 24.1940 -77.0240 114° Southeast 515 593 33,000  Level FlightAware ADS-B
Tue 12:29:27 AM 24.0633 -76.8064 114° Southeast 501 577 33,000  Level Miami Center
Tue 12:30:29 AM 24.0047 -76.6700 115° Southeast 496 571 33,000  Level Miami Center
Tue 12:31:27 AM 23.9439 -76.5292 115° Southeast 496 571 33,000  Level Miami Center
Tue 12:32:27 AM 23.8831 -76.3908 116° Southeast 496 571 33,000  Level Miami Center
Tue 12:33:30 AM 23.8303 -76.2706 116° Southeast 496 571 33,000  Level Miami Center
Tue 12:34:28 AM 23.7711 -76.1322 115° Southeast 496 571 33,000  Level Miami Center
Tue 12:35:29 AM 23.7078 -75.9964 117° Southeast 496 571 33,000  Level Miami Center
Tue 12:36:29 AM 23.6483 -75.8586 115° Southeast 496 571 33,000  Level Miami Center
Tue 12:37:28 AM 23.5908 -75.7117 113° Southeast 507 583 33,000 51 Level Miami Center
Tue 12:38:27 AM 23.5292 -75.5694 115° Southeast 517 595 33,100  Climbing Miami Center
Tue 12:39:28 AM 23.4922 -75.4181 105° East 517 595 33,000 -49 Descending Miami Center
Tue 12:40:29 AM 23.4550 -75.2644 105° East 517 595 33,000  Level Miami Center
Tue 12:41:30 AM 23.3992 -75.1181 113° Southeast 517 595 33,000  Level Miami Center
Tue 12:42:30 AM 23.3283 -74.9650 117° Southeast 517 595 33,000  Level Miami Center
Tue 12:43:27 AM 23.2617 -74.8281 118° Southeast 511 588 33,000  Level Miami Center
Tue 12:44:28 AM 23.1950 -74.6936 118° Southeast 506 582 33,000  Level Miami Center
Tue 12:45:29 AM 23.1325 -74.5614 117° Southeast 501 577 33,000  Level Miami Center
Tue 12:46:27 AM 23.0658 -74.4294 119° Southeast 496 571 33,000  Level Miami Center
Tue 12:47:27 AM 23.0031 -74.2953 117° Southeast 496 571 33,000  Level Miami Center
Tue 12:48:27 AM 22.9400 -74.1611 117° Southeast 491 565 33,000  Level Miami Center
Tue 12:49:29 AM 22.8747 -74.0250 117° Southeast 496 571 33,000  Level Miami Center
Tue 12:50:27 AM 22.8075 -73.8914 119° Southeast 501 577 33,000  Level Miami Center
Tue 12:51:30 AM 22.7419 -73.7531 117° Southeast 501 577 33,000  Level Miami Center
Tue 12:52:29 AM 22.6744 -73.6175 118° Southeast 511 588 33,000  Level Miami Center
Tue 12:53:27 AM 22.6047 -73.4819 119° Southeast 511 588 33,000  Level Miami Center
Tue 12:54:28 AM 22.5431 -73.3397 115° Southeast 511 588 33,000  Level Miami Center
Tue 12:55:28 AM 22.4817 -73.2178 119° Southeast 511 588 33,000  Level Miami Center
Tue 12:56:29 AM 22.4133 -73.0783 118° Southeast 511 588 33,000  Level Miami Center
Tue 12:57:30 AM 22.3453 -72.9389 118° Southeast 511 588 33,000  Level Miami Center
Tue 12:58:30 AM 22.2767 -72.7994 118° Southeast 516 594 33,000  Level Miami Center
Tue 12:59:28 AM 22.2106 -72.6625 118° Southeast 516 594 33,000  Level Miami Center
Tue 01:00:28 AM 22.1397 -72.5258 119° Southeast 511 588 33,000  Level Miami Center
Tue 01:01:30 AM 22.0711 -72.3894 118° Southeast 511 588 33,000  Level Miami Center
Tue 01:02:27 AM 22.0044 -72.2528 118° Southeast 511 588 33,000  Level Miami Center
Tue 01:03:27 AM 21.9378 -72.1164 118° Southeast 511 588 33,000  Level Miami Center
Tue 01:04:28 AM 21.8708 -71.9825 118° Southeast 511 588 33,000  Level Miami Center
Tue 01:05:29 AM 21.8019 -71.8508 119° Southeast 511 588 33,000  Level Miami Center
Tue 01:06:29 AM 21.7369 -71.7194 118° Southeast 511 588 33,000  Level Miami Center
Tue 01:07:30 AM 21.6697 -71.5858 118° Southeast 511 588 33,000  Level Miami Center
Tue 01:08:27 AM 21.6050 -71.4592 119° Southeast 504 580 33,000  Level Miami Center
Tue 01:09:28 AM 21.5397 -71.3300 118° Southeast 494 568 33,000  Level Miami Center
Tue 01:10:27 AM 21.4661 -71.1928 120° Southeast 487 560 33,000  Level Miami Center
Tue 01:11:28 AM 21.4122 -71.0928 120° Southeast 487 560 33,000  Level Miami Center
Tue 01:12:30 AM 21.3019 -70.9394 128° Southeast 465 535 33,000  Level Miami Center
Tue 01:13:28 AM 21.2206 -70.8250 127° Southeast 476 548 33,000  Level Miami Center
Tue 01:14:28 AM 21.1367 -70.7089 128° Southeast 481 554 33,000  Level Miami Center
Tue 01:15:30 AM 21.0528 -70.5906 127° Southeast 493 567 33,000  Level Miami Center
Tue 01:16:29 AM 20.9667 -70.4725 128° Southeast 498 573 33,000  Level Miami Center
Tue 01:17:30 AM 20.8933 -70.3694 127° Southeast 498 573 33,000  Level Miami Center
Tue 01:18:27 AM 20.8092 -70.2514 127° Southeast 498 573 33,000  Level Miami Center
Tue 01:19:29 AM 20.7272 -70.1336 127° Southeast 498 573 33,000  Level Miami Center
Tue 01:20:28 AM 20.6428 -70.0183 128° Southeast 498 573 33,000  Level Miami Center
Tue 01:21:27 AM 20.5564 -69.8986 128° Southeast 498 573 33,000  Level Miami Center
Tue 01:22:27 AM 20.4719 -69.7836 128° Southeast 498 573 33,000  Level Miami Center
Tue 01:23:27 AM 20.3894 -69.6686 127° Southeast 498 573 33,000  Level Miami Center
Tue 01:24:27 AM 20.3031 -69.5539 129° Southeast 498 573 33,000  Level Miami Center
Tue 01:25:27 AM 20.2206 -69.4369 127° Southeast 498 573 33,000  Level Miami Center
Tue 01:26:29 AM 20.1361 -69.3267 129° Southeast 493 567 33,000  Level Miami Center
Tue 01:27:30 AM 20.0517 -69.2169 129° Southeast 488 562 33,000  Level Miami Center
Tue 01:28:27 AM 19.9711 -69.1067 128° Southeast 488 562 33,000  Level Miami Center
Tue 01:29:27 AM 19.8886 -68.9947 128° Southeast 488 562 33,000  Level Miami Center
Tue 01:30:27 AM 19.8058 -68.8808 128° Southeast 488 562 33,000  Level Miami Center
Tue 01:31:28 AM 19.7231 -68.7689 128° Southeast 488 562 33,000  Level Miami Center
Tue 01:32:30 AM 19.6403 -68.6553 128° Southeast 488 562 33,000  Level Miami Center
Tue 01:33:29 AM 19.5533 -68.5461 130° Southeast 488 562 33,000  Level Miami Center
Tue 01:34:27 AM 19.4617 -68.4222 128° Southeast 488 562 33,000  Level Miami Center
Tue 01:40:12 AM 18.9570 -67.7810 128° Southeast 490 564 33,000  Level FlightAware ADS-B
Tue 01:40:52 AM 18.8900 -67.7180 138° Southeast 490 564 33,000  Level FlightAware ADS-B
Tue 01:41:37 AM 18.8220 -67.6540 138° Southeast 490 564 33,000  Level FlightAware ADS-B
Tue 01:42:17 AM 18.7650 -67.5990 138° Southeast 490 564 33,000  Level FlightAware ADS-B
Tue 01:42:57 AM 18.7080 -67.5450 138° Southeast 490 564 33,000  Level FlightAware ADS-B
Tue 01:43:37 AM 18.6510 -67.4900 138° Southeast 490 564 33,000  Level FlightAware ADS-B
Tue 01:44:17 AM 18.5930 -67.4360 139° Southeast 490 564 33,000  Level FlightAware ADS-B
Tue 01:45:07 AM 18.5220 -67.3680 138° Southeast 490 564 33,000  Level FlightAware ADS-B
Tue 01:45:47 AM 18.3890 -67.2490 140° Southeast 487 560 33,000  Level FlightAware ADS-B
Tue 01:46:32 AM 18.3140 -67.1780 138° Southeast 489 563 33,000  Level FlightAware ADS-B
Tue 01:47:12 AM 18.2470 -67.1150 138° Southeast 490 564 33,000  Level FlightAware ADS-B
Tue 01:47:57 AM 18.1690 -67.0420 138° Southeast 490 564 33,000  Level FlightAware ADS-B
Tue 01:48:37 AM 18.1000 -66.9780 139° Southeast 491 565 33,000  Level FlightAware ADS-B
Tue 01:49:17 AM 18.0330 -66.9140 138° Southeast 490 564 33,000  Level FlightAware ADS-B
Tue 01:50:02 AM 17.9580 -66.8440 138° Southeast 492 566 33,000  Level FlightAware ADS-B
Tue 01:50:42 AM 17.8890 -66.7800 139° Southeast 491 565 33,000  Level FlightAware ADS-B
Tue 01:51:27 AM 17.8120 -66.7090 139° Southeast 491 565 33,000  Level FlightAware ADS-B
Tue 01:52:07 AM 17.7440 -66.6450 138° Southeast 491 565 33,000  Level FlightAware ADS-B
Tue 01:52:47 AM 17.6830 -66.5870 138° Southeast 492 566 33,000  Level FlightAware ADS-B
Tue 01:53:32 AM 17.6030 -66.5140 139° Southeast 491 565 33,000  Level FlightAware ADS-B
Tue 01:54:12 AM 17.5320 -66.4490 139° Southeast 491 565 33,000  Level FlightAware ADS-B
Tue 01:54:47 AM 17.4720 -66.3940 139° Southeast 490 564 33,000  Level FlightAware ADS-B
Tue 01:55:32 AM 17.4070 -66.3310 137° Southeast 490 564 33,000  Level FlightAware ADS-B
Tue 01:56:12 AM 17.3490 -66.2770 138° Southeast 490 564 33,000  Level FlightAware ADS-B
Tue 01:57:02 AM 17.2780 -66.2100 138° Southeast 490 564 33,000  Level FlightAware ADS-B
Tue 01:57:42 AM 17.2200 -66.1560 138° Southeast 490 564 33,000  Level FlightAware ADS-B
Tue 01:58:22 AM 17.1630 -66.1020 138° Southeast 490 564 33,000  Level FlightAware ADS-B
Tue 01:59:02 AM 17.1060 -66.0480 138° Southeast 490 564 33,000  Level FlightAware ADS-B
Tue 01:59:42 AM 17.0490 -65.9940 138° Southeast 490 564 33,000  Level FlightAware ADS-B
Tue 02:00:32 AM 16.9770 -65.9260 138° Southeast 490 564 33,000  Level FlightAware ADS-B
Tue 02:01:12 AM 16.9200 -65.8730 138° Southeast 490 564 33,000  Level FlightAware ADS-B
Tue 02:01:52 AM 16.8620 -65.8190 138° Southeast 490 564 33,000  Level FlightAware ADS-B
Tue 02:02:32 AM 16.8050 -65.7650 138° Southeast 490 564 33,000  Level FlightAware ADS-B
Tue 02:03:12 AM 16.7480 -65.7110 138° Southeast 490 564 33,000  Level FlightAware ADS-B
Tue 02:03:52 AM 16.6900 -65.6570 138° Southeast 490 564 33,000  Level FlightAware ADS-B
Tue 02:04:42 AM 16.6190 -65.5900 138° Southeast 490 564 33,000  Level FlightAware ADS-B
Tue 02:05:45 AM 16.3833 -65.3833 138° Southeast 480 552 33,000  Level San Juan Center
Tue 02:06:45 AM 16.2667 -65.2667 136° Southeast 480 552 33,000  Level San Juan Center
Tue 02:07:45 AM 16.1667 -65.1833 141° Southeast 480 552 33,000  Level San Juan Center
Tue 02:08:46 AM 16.0500 -65.1000 146° Southeast 480 552 33,000  Level San Juan Center
Tue 02:09:46 AM 15.9500 -65.0167 141° Southeast 470 541 33,000  Level San Juan Center
Tue 02:10:46 AM 15.8500 -64.9333 141° Southeast 480 552 33,000  Level San Juan Center
Tue 02:11:47 AM 15.7500 -64.8167 132° Southeast 480 552 33,000  Level San Juan Center
Tue 02:12:47 AM 15.6500 -64.7167 136° Southeast 500 575 33,000  Level San Juan Center
Tue 02:13:47 AM 15.5500 -64.6167 136° Southeast 490 564 33,000  Level San Juan Center
Tue 02:14:48 AM 15.4500 -64.5333 141° Southeast 480 552 33,000  Level San Juan Center
Tue 02:15:48 AM 15.3500 -64.4333 136° Southeast 490 564 33,000  Level San Juan Center
Tue 02:16:48 AM 15.2500 -64.3500 141° Southeast 490 564 33,000  Level San Juan Center
Tue 02:18:00 AM 15.1262 -64.2468 141° Southeast  Level FlightAware Approximate
Tue 02:25:00 AM 14.3454 -63.7350 149° Southeast  Level FlightAware Approximate
Tue 02:26:00 AM 14.2313 -63.6659 150° Southeast  Level FlightAware Approximate
Tue 02:27:00 AM 14.1168 -63.5973 150° Southeast  Level FlightAware Approximate
Tue 02:28:00 AM 14.0016 -63.5300 150° Southeast  Level FlightAware Approximate
Tue 02:29:00 AM 13.8864 -63.4628 150° Southeast  Level FlightAware Approximate
Tue 02:30:00 AM 13.7711 -63.3956 150° Southeast  Level FlightAware Approximate
Tue 02:31:00 AM 13.6559 -63.3286 151° Southeast  Level FlightAware Approximate
Tue 02:32:00 AM 13.5406 -63.2616 151° Southeast  Level FlightAware Approximate
Tue 02:33:00 AM 13.4253 -63.1946 151° Southeast  Level FlightAware Approximate
Tue 02:34:00 AM 13.3100 -63.1277 151° Southeast  Level FlightAware Approximate
Tue 02:35:00 AM 13.1955 -63.0594 148° Southeast  Level FlightAware Approximate
Tue 02:35:32 AM 13.1910 -63.0330 148° Southeast 472 543 33,000  Level FlightAware ADS-B
Tue 02:36:07 AM 13.1430 -63.0030 149° Southeast 472 543 33,000  Level FlightAware ADS-B
Tue 02:36:57 AM 13.0630 -62.9540 149° Southeast 472 543 33,000  Level FlightAware ADS-B
Tue 02:37:37 AM 13.0000 -62.9150 149° Southeast 472 543 33,000  Level FlightAware ADS-B
Tue 02:38:17 AM 12.9360 -62.8760 149° Southeast 472 543 33,000  Level FlightAware ADS-B
Tue 02:38:57 AM 12.8720 -62.8360 149° Southeast 472 543 33,000  Level FlightAware ADS-B
Tue 02:39:37 AM 12.8090 -62.7970 149° Southeast 472 543 33,000  Level FlightAware ADS-B
Tue 02:40:27 AM 12.7290 -62.7480 149° Southeast 472 543 33,000  Level FlightAware ADS-B
Tue 02:41:07 AM 12.6650 -62.7090 149° Southeast 472 543 33,000  Level FlightAware ADS-B
Tue 02:41:47 AM 12.6020 -62.6700 149° Southeast 472 543 33,000  Level FlightAware ADS-B
Tue 02:42:27 AM 12.5380 -62.6310 149° Southeast 472 543 33,000  Level FlightAware ADS-B
Tue 02:43:07 AM 12.4740 -62.5920 149° Southeast 472 543 33,000  Level FlightAware ADS-B
Tue 02:43:47 AM 12.4110 -62.5520 148° Southeast 472 543 33,000  Level FlightAware ADS-B
Tue 02:44:37 AM 12.3310 -62.5030 149° Southeast 472 543 33,000  Level FlightAware ADS-B
Tue 02:45:17 AM 12.2680 -62.4640 149° Southeast 472 543 33,000  Level FlightAware ADS-B
Tue 02:47:00 AM 12.0720 -62.3463 150° Southeast  Level FlightAware Approximate
Tue 02:48:00 AM 11.9578 -62.2778 150° Southeast  Level FlightAware Approximate
Tue 02:49:00 AM 11.8435 -62.2094 150° Southeast  Level FlightAware Approximate
Tue 02:50:00 AM 11.7291 -62.1411 150° Southeast  Level FlightAware Approximate
Tue 02:51:00 AM 11.6147 -62.0730 150° Southeast  Level FlightAware Approximate
Tue 02:52:00 AM 11.5003 -62.0050 150° Southeast  Level FlightAware Approximate
Tue 02:53:00 AM 11.3859 -61.9370 150° Southeast  Level FlightAware Approximate
Tue 02:54:00 AM 11.2715 -61.8691 150° Southeast  Level FlightAware Approximate
Tue 02:55:00 AM 11.1570 -61.8012 150° Southeast  Level FlightAware Approximate
Tue 02:56:00 AM 11.0426 -61.7334 150° Southeast  Level FlightAware Approximate
Tue 02:57:00 AM 10.9281 -61.6656 150° Southeast  Level FlightAware Approximate
Tue 02:58:00 AM 10.8136 -61.5979 150° Southeast  Level FlightAware Approximate
Tue 02:59:00 AM 10.6991 -61.5303 150° Southeast  Level FlightAware Approximate
Tue 03:00:00 AM 10.5846 -61.4627 150° Southeast  Level FlightAware Approximate
Tue 03:01:00 AM 10.4700 -61.3951 150° Southeast  Level FlightAware Approximate
Tue 03:02:00 AM 10.3645 -61.3142 141° Southeast  Level FlightAware Approximate
Tue 03:03:00 AM 10.2609 -61.2304 141° Southeast  Level FlightAware Approximate
Tue 03:04:00 AM 10.1572 -61.1466 142° Southeast  Level FlightAware Approximate
Tue 03:05:00 AM 10.0536 -61.0630 142° Southeast  Level FlightAware Approximate
Tue 03:06:00 AM 9.9499 -60.9794 142° Southeast  Level FlightAware Approximate
Tue 03:07:00 AM 9.8462 -60.8958 142° Southeast  Level FlightAware Approximate
Tue 03:08:00 AM 9.7425 -60.8123 142° Southeast  Level FlightAware Approximate
Tue 03:09:00 AM 9.6387 -60.7288 142° Southeast  Level FlightAware Approximate
Tue 03:10:00 AM 9.5350 -60.6454 142° Southeast  Level FlightAware Approximate
Tue 03:11:00 AM 9.4312 -60.5621 142° Southeast  Level FlightAware Approximate
Tue 03:12:00 AM 9.3274 -60.4787 142° Southeast  Level FlightAware Approximate
Tue 03:13:00 AM 9.2234 -60.3957 142° Southeast  Level FlightAware Approximate
Tue 03:14:00 AM 9.1190 -60.3132 142° Southeast  Level FlightAware Approximate
Tue 03:15:00 AM 9.0146 -60.2308 142° Southeast  Level FlightAware Approximate
Tue 03:16:00 AM 8.9102 -60.1484 142° Southeast  Level FlightAware Approximate
Tue 03:17:00 AM 8.8057 -60.0661 142° Southeast  Level FlightAware Approximate
Tue 03:18:00 AM 8.7012 -59.9838 142° Southeast  Level FlightAware Approximate
Tue 03:19:00 AM 8.5967 -59.9016 142° Southeast  Level FlightAware Approximate
Tue 03:20:00 AM 8.4922 -59.8194 142° Southeast  Level FlightAware Approximate
Tue 03:21:00 AM 8.3877 -59.7372 142° Southeast  Level FlightAware Approximate
Tue 03:22:00 AM 8.2831 -59.6551 142° Southeast  Level FlightAware Approximate
Tue 03:23:00 AM 8.1785 -59.5731 142° Southeast  Level FlightAware Approximate
Tue 03:24:00 AM 8.0740 -59.4910 142° Southeast  Level FlightAware Approximate
Tue 03:25:00 AM 7.9694 -59.4091 142° Southeast  Level FlightAware Approximate
Tue 03:26:00 AM 7.8647 -59.3271 142° Southeast  Level FlightAware Approximate
Tue 03:27:00 AM 7.7601 -59.2453 142° Southeast  Level FlightAware Approximate
Tue 03:28:00 AM 7.6555 -59.1634 142° Southeast  Level FlightAware Approximate
Tue 03:29:00 AM 7.5508 -59.0816 142° Southeast  Level FlightAware Approximate
Tue 03:30:00 AM 7.4461 -58.9998 142° Southeast  Level FlightAware Approximate
Tue 03:31:00 AM 7.3414 -58.9181 142° Southeast  Level FlightAware Approximate
Tue 03:32:00 AM 7.2367 -58.8364 142° Southeast  Level FlightAware Approximate
Tue 03:33:00 AM 7.1320 -58.7547 142° Southeast  Level FlightAware Approximate
Tue 03:34:00 AM 7.0273 -58.6731 142° Southeast  Level FlightAware Approximate
Tue 03:35:00 AM 6.9225 -58.5915 142° Southeast  Level FlightAware Approximate
Tue 03:36:00 AM 6.8177 -58.5100 142° Southeast  Level FlightAware Approximate
Tue 03:37:00 AM 6.7130 -58.4285 142° Southeast  Level FlightAware Approximate
Tue 03:38:00 AM 6.6082 -58.3470 142° Southeast  Level FlightAware Approximate
Tue 03:39:00 AM 6.5034 -58.2656 142° Southeast  Level FlightAware Approximate
Tue 03:40:00 AM 6.3835 -58.2110 159° South  Level FlightAware Approximate
Tue 03:41:00 AM 6.2601 -58.1628 159° South  Level FlightAware Approximate
Tue 03:42:00 AM 6.1366 -58.1147 159° South  Level FlightAware Approximate
Tue 03:43:00 AM 6.0132 -58.0666 159° South  Level FlightAware Approximate
Tue 03:44:00 AM 5.8897 -58.0185 159° South  Level FlightAware Approximate
Tue 03:45:00 AM 5.7662 -57.9704 159° South  Level FlightAware Approximate
Tue 03:46:00 AM 5.6428 -57.9223 159° South  Level FlightAware Approximate
Tue 03:47:00 AM 5.5193 -57.8743 159° South  Level FlightAware Approximate
Tue 03:48:00 AM 5.3958 -57.8263 159° South  Level FlightAware Approximate
Tue 03:49:00 AM 5.2724 -57.7783 159° South  Level FlightAware Approximate
Tue 03:50:00 AM 5.1489 -57.7303 159° South  Level FlightAware Approximate
Tue 03:51:00 AM 5.0254 -57.6823 159° South  Level FlightAware Approximate
Tue 03:52:00 AM 4.9019 -57.6344 159° South  Level FlightAware Approximate
Tue 03:53:00 AM 4.7784 -57.5865 159° South  Level FlightAware Approximate
Tue 03:54:00 AM 4.6549 -57.5386 159° South  Level FlightAware Approximate
Tue 03:55:00 AM 4.5314 -57.4907 159° South  Level FlightAware Approximate
Tue 03:56:00 AM 4.4079 -57.4428 159° South  Level FlightAware Approximate
Tue 03:57:00 AM 4.2844 -57.3949 159° South  Level FlightAware Approximate
Tue 03:58:00 AM 4.1609 -57.3471 159° South  Level FlightAware Approximate
Tue 03:59:00 AM 4.0374 -57.2993 159° South  Level FlightAware Approximate
Tue 04:00:00 AM 3.9139 -57.2514 159° South  Level FlightAware Approximate
Tue 04:01:00 AM 3.7904 -57.2037 159° South  Level FlightAware Approximate
Tue 04:02:00 AM 3.6669 -57.1559 159° South  Level FlightAware Approximate
Tue 04:03:00 AM 3.5433 -57.1081 159° South  Level FlightAware Approximate
Tue 04:04:00 AM 3.4198 -57.0603 159° South  Level FlightAware Approximate
Tue 04:05:00 AM 3.2963 -57.0127 159° South  Level FlightAware Approximate
Tue 04:06:00 AM 3.1726 -56.9653 159° South  Level FlightAware Approximate
Tue 04:07:00 AM 3.0490 -56.9179 159° South  Level FlightAware Approximate
Tue 04:08:00 AM 2.9253 -56.8705 159° South  Level FlightAware Approximate
Tue 04:09:00 AM 2.8017 -56.8231 159° South  Level FlightAware Approximate
Tue 04:10:00 AM 2.6780 -56.7757 159° South  Level FlightAware Approximate
Tue 04:11:00 AM 2.5544 -56.7283 159° South  Level FlightAware Approximate
Tue 04:12:00 AM 2.4307 -56.6809 159° South  Level FlightAware Approximate
Tue 04:13:00 AM 2.3071 -56.6335 159° South  Level FlightAware Approximate
Tue 04:14:00 AM 2.1834 -56.5862 159° South  Level FlightAware Approximate
Tue 04:15:00 AM 2.0598 -56.5388 159° South  Level FlightAware Approximate
Tue 04:16:00 AM 1.9361 -56.4915 159° South  Level FlightAware Approximate
Tue 04:17:00 AM 1.8125 -56.4442 159° South  Level FlightAware Approximate
Tue 04:18:00 AM 1.6888 -56.3968 159° South  Level FlightAware Approximate
Tue 04:19:00 AM 1.5651 -56.3495 159° South  Level FlightAware Approximate
Tue 04:20:00 AM 1.4415 -56.3022 159° South  Level FlightAware Approximate
Tue 04:21:00 AM 1.3178 -56.2549 159° South  Level FlightAware Approximate
Tue 04:22:00 AM 1.1941 -56.2076 159° South  Level FlightAware Approximate
Tue 04:23:00 AM 1.0705 -56.1603 159° South  Level FlightAware Approximate
Tue 04:24:00 AM 0.9493 -56.1074 153° Southeast  Level FlightAware Approximate
Tue 04:25:00 AM 0.8314 -56.0471 153° Southeast  Level FlightAware Approximate
Tue 04:26:00 AM 0.7135 -55.9869 153° Southeast  Level FlightAware Approximate
Tue 04:27:00 AM 0.5956 -55.9266 153° Southeast  Level FlightAware Approximate
Tue 04:28:00 AM 0.4777 -55.8663 153° Southeast  Level FlightAware Approximate
Tue 04:29:00 AM 0.3598 -55.8060 153° Southeast  Level FlightAware Approximate
Tue 04:30:00 AM 0.2419 -55.7458 153° Southeast  Level FlightAware Approximate
Tue 04:31:00 AM 0.1240 -55.6855 153° Southeast  Level FlightAware Approximate
Tue 04:32:00 AM 0.0061 -55.6253 153° Southeast  Level FlightAware Approximate
Tue 04:33:00 AM -0.1117 -55.5650 153° Southeast  Level FlightAware Approximate
Tue 04:34:00 AM -0.2296 -55.5047 153° Southeast  Level FlightAware Approximate
Tue 04:35:00 AM -0.3475 -55.4445 153° Southeast  Level FlightAware Approximate
Tue 04:36:00 AM -0.4654 -55.3842 153° Southeast  Level FlightAware Approximate
Tue 04:37:00 AM -0.5833 -55.3240 153° Southeast  Level FlightAware Approximate
Tue 04:38:00 AM -0.7012 -55.2637 153° Southeast  Level FlightAware Approximate
Tue 04:39:00 AM -0.8191 -55.2034 153° Southeast  Level FlightAware Approximate
Tue 04:40:00 AM -0.9370 -55.1432 153° Southeast  Level FlightAware Approximate
Tue 04:41:00 AM -1.0549 -55.0829 153° Southeast  Level FlightAware Approximate
Tue 04:42:00 AM -1.1727 -55.0226 153° Southeast  Level FlightAware Approximate
Tue 04:43:00 AM -1.2906 -54.9623 153° Southeast  Level FlightAware Approximate
Tue 04:44:00 AM -1.4085 -54.9020 153° Southeast  Level FlightAware Approximate
Tue 04:45:00 AM -1.5264 -54.8417 153° Southeast  Level FlightAware Approximate
Tue 04:46:00 AM -1.6443 -54.7814 153° Southeast  Level FlightAware Approximate
Tue 04:47:00 AM -1.7622 -54.7211 153° Southeast  Level FlightAware Approximate
Tue 04:48:00 AM -1.8800 -54.6608 153° Southeast  Level FlightAware Approximate
Tue 04:49:00 AM -1.9979 -54.6004 153° Southeast  Level FlightAware Approximate
Tue 04:50:00 AM -2.1158 -54.5401 153° Southeast  Level FlightAware Approximate
Tue 04:51:00 AM -2.2337 -54.4798 153° Southeast  Level FlightAware Approximate
Tue 04:52:00 AM -2.3515 -54.4194 153° Southeast  Level FlightAware Approximate
Tue 04:53:00 AM -2.4694 -54.3590 153° Southeast  Level FlightAware Approximate
Tue 04:54:00 AM -2.5873 -54.2986 153° Southeast  Level FlightAware Approximate
Tue 04:55:00 AM -2.7051 -54.2383 153° Southeast  Level FlightAware Approximate
Tue 04:56:00 AM -2.8230 -54.1779 153° Southeast  Level FlightAware Approximate
Tue 04:57:00 AM -2.9408 -54.1175 153° Southeast  Level FlightAware Approximate
Tue 04:58:00 AM -3.0587 -54.0570 153° Southeast  Level FlightAware Approximate
Tue 04:59:00 AM -3.1765 -53.9966 153° Southeast  Level FlightAware Approximate
Tue 05:00:00 AM -3.2944 -53.9361 153° Southeast  Level FlightAware Approximate
Tue 05:01:00 AM -3.4122 -53.8757 153° Southeast  Level FlightAware Approximate
Tue 05:02:00 AM -3.5301 -53.8152 153° Southeast  Level FlightAware Approximate
Tue 05:03:00 AM -3.6479 -53.7547 153° Southeast  Level FlightAware Approximate
Tue 05:04:00 AM -3.7657 -53.6942 153° Southeast  Level FlightAware Approximate
Tue 05:05:00 AM -3.8835 -53.6336 153° Southeast  Level FlightAware Approximate
Tue 05:06:00 AM -4.0014 -53.5731 153° Southeast  Level FlightAware Approximate
Tue 05:07:00 AM -4.1192 -53.5125 153° Southeast  Level FlightAware Approximate
Tue 05:08:00 AM -4.2370 -53.4520 153° Southeast  Level FlightAware Approximate
Tue 05:09:00 AM -4.3548 -53.3913 153° Southeast  Level FlightAware Approximate
Tue 05:10:00 AM -4.4726 -53.3307 153° Southeast  Level FlightAware Approximate
Tue 05:11:00 AM -4.5904 -53.2701 153° Southeast  Level FlightAware Approximate
Tue 05:12:00 AM -4.7082 -53.2094 153° Southeast  Level FlightAware Approximate
Tue 05:13:00 AM -4.8260 -53.1488 153° Southeast  Level FlightAware Approximate
Tue 05:14:00 AM -4.9438 -53.0881 153° Southeast  Level FlightAware Approximate
Tue 05:15:00 AM -5.0615 -53.0273 153° Southeast  Level FlightAware Approximate
Tue 05:16:00 AM -5.1793 -52.9666 153° Southeast  Level FlightAware Approximate
Tue 05:17:00 AM -5.2971 -52.9058 153° Southeast  Level FlightAware Approximate
Tue 05:18:00 AM -5.4148 -52.8450 153° Southeast  Level FlightAware Approximate
Tue 05:19:00 AM -5.5326 -52.7842 153° Southeast  Level FlightAware Approximate
Tue 05:20:00 AM -5.6503 -52.7234 153° Southeast  Level FlightAware Approximate
Tue 05:21:00 AM -5.7681 -52.6625 153° Southeast  Level FlightAware Approximate
Tue 05:22:00 AM -5.8858 -52.6016 153° Southeast  Level FlightAware Approximate
Tue 05:23:00 AM -6.0035 -52.5407 153° Southeast  Level FlightAware Approximate
Tue 05:24:00 AM -6.1213 -52.4798 153° Southeast  Level FlightAware Approximate
Tue 05:25:00 AM -6.2390 -52.4188 153° Southeast  Level FlightAware Approximate
Tue 05:26:00 AM -6.3567 -52.3578 153° Southeast  Level FlightAware Approximate
Tue 05:27:00 AM -6.4744 -52.2968 153° Southeast  Level FlightAware Approximate
Tue 05:28:00 AM -6.5921 -52.2357 153° Southeast  Level FlightAware Approximate
Tue 05:29:00 AM -6.7097 -52.1747 153° Southeast  Level FlightAware Approximate
Tue 05:30:00 AM -6.8274 -52.1136 153° Southeast  Level FlightAware Approximate
Tue 05:31:00 AM -6.9451 -52.0524 153° Southeast  Level FlightAware Approximate
Tue 05:32:00 AM -7.0627 -51.9912 153° Southeast  Level FlightAware Approximate
Tue 05:33:00 AM -7.1804 -51.9300 153° Southeast  Level FlightAware Approximate
Tue 05:34:00 AM -7.2980 -51.8688 153° Southeast  Level FlightAware Approximate
Tue 05:35:00 AM -7.4157 -51.8076 153° Southeast  Level FlightAware Approximate
Tue 05:36:00 AM -7.5333 -51.7463 153° Southeast  Level FlightAware Approximate
Tue 05:37:00 AM -7.6509 -51.6849 153° Southeast  Level FlightAware Approximate
Tue 05:38:00 AM -7.7685 -51.6236 153° Southeast  Level FlightAware Approximate
Tue 05:39:00 AM -7.8861 -51.5622 153° Southeast  Level FlightAware Approximate
Tue 05:40:00 AM -8.0037 -51.5007 153° Southeast  Level FlightAware Approximate
Tue 05:41:00 AM -8.1213 -51.4393 153° Southeast  Level FlightAware Approximate
Tue 05:42:00 AM -8.2389 -51.3778 153° Southeast  Level FlightAware Approximate
Tue 05:43:00 AM -8.3565 -51.3162 153° Southeast  Level FlightAware Approximate
Tue 05:44:00 AM -8.4740 -51.2547 153° Southeast  Level FlightAware Approximate
Tue 05:45:00 AM -8.5916 -51.1930 153° Southeast  Level FlightAware Approximate
Tue 05:46:00 AM -8.7091 -51.1314 153° Southeast  Level FlightAware Approximate
Tue 05:47:00 AM -8.8266 -51.0697 153° Southeast  Level FlightAware Approximate
Tue 05:48:00 AM -8.9442 -51.0080 153° Southeast  Level FlightAware Approximate
Tue 05:49:00 AM -9.0617 -50.9462 153° Southeast  Level FlightAware Approximate
Tue 05:50:00 AM -9.1792 -50.8844 153° Southeast  Level FlightAware Approximate
Tue 05:51:00 AM -9.2967 -50.8225 153° Southeast  Level FlightAware Approximate
Tue 05:52:00 AM -9.4141 -50.7606 153° Southeast  Level FlightAware Approximate
Tue 05:53:00 AM -9.5316 -50.6987 153° Southeast  Level FlightAware Approximate
Tue 05:54:00 AM -9.6490 -50.6367 153° Southeast  Level FlightAware Approximate
Tue 05:55:00 AM -9.7665 -50.5747 153° Southeast  Level FlightAware Approximate
Tue 05:56:00 AM -9.8839 -50.5126 152° Southeast  Level FlightAware Approximate
Tue 05:57:00 AM -10.0013 -50.4505 152° Southeast  Level FlightAware Approximate
Tue 05:58:00 AM -10.1187 -50.3884 152° Southeast  Level FlightAware Approximate
Tue 05:58:02 AM -10.1850 -50.9720 152° Southeast 491 565 33,000  Level FlightAware ADS-B
Tue 06:00:00 AM -10.4118 -50.8420 151° Southeast  Level Estimated
Tue 06:00:22 AM -10.4690 -50.8290 151° Southeast 491 565 33,000  Level FlightAware ADS-B
Tue 06:01:07 AM -10.5640 -50.7810 154° Southeast 491 565 33,000  Level FlightAware ADS-B
Tue 06:01:47 AM -10.6330 -50.7450 153° Southeast 491 565 33,000  Level FlightAware ADS-B
Tue 06:02:32 AM -10.7420 -50.6910 154° Southeast 491 565 33,000  Level FlightAware ADS-B
Tue 06:03:12 AM -10.8260 -50.6490 154° Southeast 490 564 33,000  Level FlightAware ADS-B
Tue 06:03:47 AM -10.8960 -50.6130 153° Southeast 490 564 33,000  Level FlightAware ADS-B
Tue 06:04:37 AM -10.9870 -50.5670 154° Southeast 489 563 33,000  Level FlightAware ADS-B
Tue 06:05:17 AM -11.0710 -50.5240 153° Southeast 490 564 33,000  Level FlightAware ADS-B
Tue 06:05:52 AM -11.1470 -50.4860 154° Southeast 491 565 33,000  Level FlightAware ADS-B
Tue 06:06:32 AM -11.2280 -50.4450 154° Southeast 491 565 33,000  Level FlightAware ADS-B
Tue 06:07:47 AM -11.3680 -50.3740 154° Southeast 491 565 33,000  Level FlightAware ADS-B
Tue 06:08:32 AM -11.4520 -50.3300 153° Southeast 491 565 33,000  Level FlightAware ADS-B
Tue 06:09:12 AM -11.5450 -50.2830 154° Southeast 492 566 33,000  Level FlightAware ADS-B
Tue 06:09:57 AM -11.6530 -50.2280 153° Southeast 494 568 33,000  Level FlightAware ADS-B
Tue 06:10:37 AM -11.7320 -50.1880 154° Southeast 496 571 33,000  Level FlightAware ADS-B
Tue 06:11:22 AM -11.8180 -50.1440 153° Southeast 496 571 33,000  Level FlightAware ADS-B
Tue 06:12:07 AM -11.7720 -50.1670 334° Northwest 496 571 33,000  Level FlightAware ADS-B
Tue 06:13:02 AM -12.0190 -50.0400 153° Southeast 496 571 33,000  Level FlightAware ADS-B
Tue 06:13:52 AM -12.1150 -49.9910 153° Southeast 496 571 33,000  Level FlightAware ADS-B
Tue 06:14:37 AM -12.1100 -49.9940 330° Northwest 496 571 33,000  Level FlightAware ADS-B
Tue 06:15:22 AM -12.1340 -49.9810 152° Southeast 496 571 33,000  Level FlightAware ADS-B
Tue 06:16:02 AM -12.2040 -49.9450 153° Southeast 496 571 33,000  Level FlightAware ADS-B
Tue 06:16:42 AM -12.2730 -49.9090 153° Southeast 496 571 33,000  Level FlightAware ADS-B
Tue 06:17:22 AM -12.3430 -49.8730 153° Southeast 496 571 33,000  Level FlightAware ADS-B
Tue 06:18:02 AM -12.4120 -49.8360 152° Southeast 496 571 33,000  Level FlightAware ADS-B
Tue 06:18:52 AM -12.4990 -49.7910 153° Southeast 496 571 33,000  Level FlightAware ADS-B
Tue 06:19:32 AM -12.5690 -49.7550 153° Southeast 496 571 33,000  Level FlightAware ADS-B
Tue 06:20:12 AM -12.6380 -49.7180 152° Southeast 496 571 33,000  Level FlightAware ADS-B
Tue 06:20:52 AM -12.0660 -50.0170 333° Northwest 33,000  Level FlightAware ADS-B
Tue 06:23:00 AM -12.3104 -49.8721 150° Southeast  Level Estimated
Tue 06:24:00 AM -12.4249 -49.8041 150° Southeast  Level Estimated
Tue 06:25:00 AM -12.5394 -49.7361 150° Southeast  Level Estimated
Tue 06:26:00 AM -12.6539 -49.6679 150° Southeast  Level Estimated
Tue 06:27:00 AM -12.7684 -49.5998 150° Southeast  Level Estimated
Tue 06:28:00 AM -12.8829 -49.5315 150° Southeast  Level Estimated
Tue 06:29:00 AM -12.9973 -49.4632 150° Southeast  Level Estimated
Tue 06:30:00 AM -13.1118 -49.3948 150° Southeast  Level Estimated
Tue 06:31:00 AM -13.2262 -49.3264 150° Southeast  Level Estimated
Tue 06:32:00 AM -13.3406 -49.2579 150° Southeast  Level Estimated
Tue 06:33:00 AM -13.4549 -49.1893 150° Southeast  Level Estimated
Tue 06:34:00 AM -13.5693 -49.1207 150° Southeast  Level Estimated
Tue 06:34:27 AM -14.6730 -48.6560 150° Southeast 499 574 33,000  Level FlightAware ADS-B
Tue 06:35:07 AM -14.7430 -48.6030 144° Southeast 500 575 33,000  Level FlightAware ADS-B
Tue 06:35:47 AM -14.8170 -48.5380 140° Southeast 499 574 33,000  Level FlightAware ADS-B
Tue 06:37:07 AM -14.9640 -48.4390 147° Southeast 497 572 33,000  Level FlightAware ADS-B
Tue 06:39:00 AM -15.1771 -48.3049 149° Southeast  Level Estimated
Tue 06:40:00 AM -15.2902 -48.2336 149° Southeast  Level Estimated
Tue 06:41:00 AM -15.4033 -48.1622 149° Southeast  Level Estimated
Tue 06:42:00 AM -15.5164 -48.0907 149° Southeast  Level Estimated
Tue 06:43:00 AM -15.6294 -48.0192 149° Southeast  Level Estimated
Tue 06:44:00 AM -15.7425 -47.9476 149° Southeast  Level Estimated
Tue 06:44:57 AM -15.9410 -47.9780 149° Southeast 495 570 33,000  Level FlightAware ADS-B
Tue 06:45:00 AM -15.8555 -47.8759 149° Southeast  Level Estimated
Tue 06:45:47 AM -16.0380 -47.9170 149° Southeast 495 570 33,000  Level FlightAware ADS-B
Tue 06:46:37 AM -16.1220 -47.8650 149° Southeast 495 570 33,000  Level FlightAware ADS-B
Tue 06:47:17 AM -16.1880 -47.8230 149° Southeast 495 570 33,000  Level FlightAware ADS-B
Tue 06:48:07 AM -16.3230 -47.7430 150° Southeast 495 570 33,000  Level FlightAware ADS-B
Tue 06:48:57 AM -16.4220 -47.6830 150° Southeast 495 570 33,000  Level FlightAware ADS-B
Tue 06:49:37 AM -16.5040 -47.6320 149° Southeast 495 570 33,000  Level FlightAware ADS-B
Tue 06:50:22 AM -16.5920 -47.5780 150° Southeast 494 568 33,000  Level FlightAware ADS-B
Tue 06:51:02 AM -16.6710 -47.5300 150° Southeast 493 567 33,000  Level FlightAware ADS-B
Tue 06:51:42 AM -16.7480 -47.4830 150° Southeast 493 567 33,000  Level FlightAware ADS-B
Tue 06:52:27 AM -16.8270 -47.4330 149° Southeast 493 567 33,000  Level FlightAware ADS-B
Tue 06:53:07 AM -16.8940 -47.3910 149° Southeast 493 567 33,000  Level FlightAware ADS-B
Tue 06:53:47 AM -16.9600 -47.3490 149° Southeast 493 567 33,000  Level FlightAware ADS-B
Tue 06:54:27 AM -17.0270 -47.3070 149° Southeast 493 567 33,000  Level FlightAware ADS-B
Tue 06:55:07 AM -17.0930 -47.2660 149° Southeast 493 567 33,000  Level FlightAware ADS-B
Tue 06:55:57 AM -17.1760 -47.2130 149° Southeast 493 567 33,000  Level FlightAware ADS-B
Tue 06:56:37 AM -17.2430 -47.1720 150° Southeast 493 567 33,000  Level FlightAware ADS-B
Tue 06:57:17 AM -17.3090 -47.1300 149° Southeast 493 567 33,000  Level FlightAware ADS-B
Tue 06:57:57 AM -17.3760 -47.0880 149° Southeast 493 567 33,000  Level FlightAware ADS-B
Tue 06:58:37 AM -17.4420 -47.0460 149° Southeast 493 567 33,000  Level FlightAware ADS-B
Tue 06:59:17 AM -17.5090 -47.0040 149° Southeast 493 567 33,000  Level FlightAware ADS-B
Tue 07:00:07 AM -17.5920 -46.9520 149° Southeast 493 567 33,000  Level FlightAware ADS-B
Tue 07:00:47 AM -17.6580 -46.9100 149° Southeast 493 567 33,000  Level FlightAware ADS-B
Tue 07:01:27 AM -17.7250 -46.8680 149° Southeast 493 567 33,000 -115 Level FlightAware ADS-B
Tue 07:04:00 AM -18.0075 -46.6738 147° Southeast  Level Estimated
Tue 07:05:00 AM -18.1183 -46.5975 147° Southeast  Level Estimated
Tue 07:06:00 AM -18.2290 -46.5210 147° Southeast  Level Estimated
Tue 07:07:00 AM -18.3397 -46.4445 147° Southeast  Level Estimated
Tue 07:08:00 AM -18.4504 -46.3679 147° Southeast  Level Estimated
Tue 07:09:00 AM -18.5610 -46.2912 147° Southeast  Level Estimated
Tue 07:10:00 AM -18.6716 -46.2144 147° Southeast  Level Estimated
Tue 07:11:00 AM -18.7821 -46.1375 147° Southeast  Level Estimated
Tue 07:12:00 AM -18.8927 -46.0604 147° Southeast  Level Estimated
Tue 07:13:00 AM -19.0032 -45.9833 147° Southeast  Level Estimated
Tue 07:14:00 AM -19.1136 -45.9061 147° Southeast  Level Estimated
Tue 07:15:00 AM -19.2241 -45.8288 147° Southeast  Level Estimated
Tue 07:16:00 AM -19.3345 -45.7513 147° Southeast  Level Estimated
Tue 07:17:00 AM -19.4448 -45.6738 146° Southeast  Level Estimated
Tue 07:18:00 AM -19.5559 -45.5956 146° Southeast  Level Estimated
Tue 07:19:00 AM -19.6670 -45.5173 146° Southeast  Level Estimated
Tue 07:20:00 AM -19.7780 -45.4389 146° Southeast  Level Estimated
Tue 07:21:00 AM -19.8890 -45.3605 146° Southeast  Level Estimated
Tue 07:22:00 AM -20.0000 -45.2818 146° Southeast  Level Estimated
Tue 07:23:00 AM -20.1109 -45.2031 146° Southeast  Level Estimated
Tue 07:24:00 AM -20.2218 -45.1243 146° Southeast  Level Estimated
Tue 07:25:00 AM -20.3327 -45.0453 146° Southeast  Level Estimated
Tue 07:26:00 AM -20.4435 -44.9663 146° Southeast  Level Estimated
Tue 07:27:00 AM -20.5543 -44.8871 146° Southeast  Level Estimated
Tue 07:28:00 AM -20.6651 -44.8078 146° Southeast  Level Estimated
Tue 07:29:00 AM -20.7758 -44.7284 146° Southeast  Level Estimated
Tue 07:30:00 AM -20.8865 -44.6489 146° Southeast  Level Estimated
Tue 07:31:00 AM -20.9971 -44.5692 146° Southeast  Level Estimated
Tue 07:31:07 AM -21.3640 -44.5670 146° Southeast 453 521 29,500  Level FlightAware ADS-B
Tue 07:31:47 AM -21.4380 -44.5180 148° Southeast 435 501 28,300 -988 Descending FlightAware ADS-B
Tue 07:32:32 AM -21.5140 -44.4680 149° Southeast 439 505 28,100 -1,575 Descending FlightAware ADS-B
Tue 07:33:07 AM -21.5720 -44.4300 149° Southeast 414 476 26,200 -1,425 Descending FlightAware ADS-B
Tue 07:33:52 AM -21.6390 -44.3830 147° Southeast 414 476 26,200 -1,575 Level FlightAware ADS-B
Tue 07:35:47 AM -21.8280 -44.2620 149° Southeast 379 436 22,000 -2,000 Descending FlightAware ADS-B
Tue 07:36:22 AM -21.8720 -44.2320 148° Southeast 366 421 21,200 -600 Descending FlightAware ADS-B
Tue 07:37:07 AM -21.9310 -44.1910 147° Southeast 366 421 21,200  Level FlightAware ADS-B
Tue 07:37:57 AM -21.9920 -44.1490 147° Southeast 366 421 21,200  Level FlightAware ADS-B
Tue 07:38:37 AM -22.0400 -44.1150 147° Southeast 366 421 21,200  Level FlightAware ADS-B
Tue 07:39:17 AM -22.0880 -44.0810 147° Southeast 366 421 21,200  Level FlightAware ADS-B
Tue 07:39:57 AM -22.1360 -44.0470 147° Southeast 366 421 21,200 -2,655 Level FlightAware ADS-B
Tue 07:42:00 AM -22.3200 -43.8286 132° Southeast  Level Estimated
Tue 07:42:32 AM -22.3760 -43.8960 132° Southeast 11,600  Level FlightAware ADS-B
Tue 07:43:12 AM -22.4240 -43.8640 148° Southeast 299 344 10,800 -1,125 Descending FlightAware ADS-B
Tue 07:43:52 AM -22.4690 -43.8330 148° Southeast 264 304 10,100 -1,040 Descending FlightAware ADS-B
Tue 07:44:27 AM -22.5110 -43.8160 159° South 255 293 9,500 -900 Descending FlightAware ADS-B
Tue 07:44:52 AM -22.5330 -43.8070 159° South 252 290 9,200 -1,091 Descending FlightAware ADS-B
Tue 07:45:22 AM -22.5700 -43.7920 159° South 249 287 8,500 -1,100 Descending FlightAware ADS-B
Tue 07:45:52 AM -22.6030 -43.7800 161° South 246 283 8,100 -750 Descending FlightAware ADS-B
Tue 07:46:02 AM -22.6060 -43.7790 163° South 245 282 8,000 -857 Descending FlightAware ADS-B
Tue 07:46:27 AM -22.6300 -43.7700 161° South 243 280 7,600 -480 Descending FlightAware ADS-B
Tue 07:46:52 AM -22.6560 -43.7590 159° South 243 280 7,600 -745 Level FlightAware ADS-B
Tue 07:48:52 AM -22.7030 -43.6330 112° Southeast 217 250 5,800 -933 Descending FlightAware ADS-B
Tue 07:49:07 AM -22.7060 -43.6150 100° East 217 250 5,500 -1,333 Descending FlightAware ADS-B
Tue 07:49:37 AM -22.7130 -43.5810 103° East 212 244 4,800 -873 Descending FlightAware ADS-B
Tue 07:50:02 AM -22.7180 -43.5560 102° East 212 244 4,700 -360 Descending FlightAware ADS-B
Tue 07:50:27 AM -22.7220 -43.5310 100° East 212 244 4,500 -600 Descending FlightAware ADS-B
Tue 07:50:42 AM -22.7250 -43.5150 101° East 210 242 4,300 -450 Descending FlightAware ADS-B
Tue 07:51:07 AM -22.7300 -43.4890 102° East 213 245 4,200 -514 Descending FlightAware ADS-B
Tue 07:51:52 AM -22.7360 -43.4370 97° East 207 238 3,700 -800 Descending FlightAware ADS-B
Tue 07:52:07 AM -22.7370 -43.4210 94° East 207 238 3,400 -1,067 Descending FlightAware ADS-B
Tue 07:52:37 AM -22.7380 -43.3920 92° East 196 226 2,900 -933 Descending FlightAware ADS-B
Tue 07:52:52 AM -22.7440 -43.3770 113° Southeast 186 214 2,700 -1,067 Descending FlightAware ADS-B
Tue 07:53:22 AM -22.7580 -43.3560 126° Southeast 182 209 2,100 -1,200 Descending FlightAware ADS-B
Tue 07:53:47 AM -22.7690 -43.3380 124° Southeast 177 204 1,600 -1,050 Descending FlightAware ADS-B
Tue 07:54:02 AM -22.7760 -43.3270 125° Southeast 169 194 1,400 -800 Descending FlightAware ADS-B
Tue 07:54:32 AM -22.7890 -43.3080 127° Southeast 151 174 1,000 -764 Descending FlightAware ADS-B
Tue 07:54:57 AM -22.7980 -43.2930 123° Southeast 151 174 700 -764 Descending FlightAware ADS-B
Tue 07:55:27 AM -22.8110 -43.2740 127° Southeast 148 170 300 -750 Descending FlightAware ADS-B
Tue 07:55:37 AM -22.8140 -43.2690 123° Southeast 148 170 200 -171 Descending FlightAware ADS-B
Tue 07:56:02 AM -22.8240 -43.2540 126° Southeast 148 170 200  Level FlightAware ADS-B

Login

Don't have an account? Register now (free) for customized features, flight alerts, and more!